Time;durP1;ratioP1;P1;durP2;ratioP2;P2;SDS_P1;SDS_P2;PMS_P1;PMS_P2;Temp;Humidity;BMP_temperature;BMP_pressure;BME280_temperature;BME280_humidity;BME280_pressure;Samples;Min_cycle;Max_cycle;Signal;HPM_P1;HPM_P2
2024/01/22 00:02:17;;;;;;;25.50;11.10;;;;;;;;;;6089477;23;20216;-92
2024/01/22 00:05:30;;;;;;;20.33;9.13;;;;;;;;;;6089541;23;20167;-93
2024/01/22 00:08:36;;;;;;;20.23;8.47;;;;;;;;;;6087680;23;20167;-92
2024/01/22 00:11:41;;;;;;;19.07;8.97;;;;;;;;;;6088398;23;20211;-90
2024/01/22 00:14:47;;;;;;;27.27;9.67;;;;;;;;;;6088114;23;20606;-93
2024/01/22 00:17:57;;;;;;;18.27;8.80;;;;;;;;;;6087633;23;20186;-95
2024/01/22 00:21:05;;;;;;;21.60;8.93;;;;;;;;;;6089161;23;20193;-92
2024/01/22 00:24:11;;;;;;;18.67;8.47;;;;;;;;;;6088718;23;20471;-92
2024/01/22 00:27:16;;;;;;;17.43;8.67;;;;;;;;;;6088372;23;20158;-91
2024/01/22 00:30:26;;;;;;;26.23;11.30;;;;;;;;;;6087007;23;20176;-94
2024/01/22 00:33:33;;;;;;;19.40;8.33;;;;;;;;;;6089334;23;20237;-93
2024/01/22 00:36:40;;;;;;;21.30;9.10;;;;;;;;;;6089668;23;20267;-92
2024/01/22 00:39:46;;;;;;;20.43;9.00;;;;;;;;;;6089088;23;20219;-94
2024/01/22 00:42:52;;;;;;;18.33;8.47;;;;;;;;;;6088981;23;20183;-91
2024/01/22 00:46:00;;;;;;;18.70;8.57;;;;;;;;;;6089496;23;20204;-91
2024/01/22 00:49:06;;;;;;;21.10;8.37;;;;;;;;;;6090195;23;20173;-91
2024/01/22 00:52:13;;;;;;;16.43;7.60;;;;;;;;;;6088391;23;20174;-91
2024/01/22 00:55:19;;;;;;;23.40;9.13;;;;;;;;;;6088891;23;20166;-92
2024/01/22 00:58:24;;;;;;;20.40;7.80;;;;;;;;;;6088232;23;20508;-91
2024/01/22 01:01:32;;;;;;;15.83;6.73;;;;;;;;;;6090697;23;20220;-92
2024/01/22 01:04:38;;;;;;;17.40;6.40;;;;;;;;;;6087790;23;20167;-92
2024/01/22 01:07:45;;;;;;;16.80;6.80;;;;;;;;;;6088450;23;20174;-90
2024/01/22 01:10:54;;;;;;;19.03;6.80;;;;;;;;;;6089054;23;20274;-90
2024/01/22 01:14:00;;;;;;;15.57;7.57;;;;;;;;;;6089987;23;20182;-91
2024/01/22 01:17:06;;;;;;;17.00;7.73;;;;;;;;;;6089479;23;20171;-90
2024/01/22 01:20:14;;;;;;;20.13;8.70;;;;;;;;;;6090558;23;20203;-92
2024/01/22 01:23:21;;;;;;;21.30;9.00;;;;;;;;;;6084228;23;20227;-91
2024/01/22 01:26:26;;;;;;;17.77;8.10;;;;;;;;;;6088391;23;20195;-93
2024/01/22 01:29:48;;;;;;;21.30;8.17;;;;;;;;;;6081454;23;20321;-90
2024/01/22 01:33:06;;;;;;;26.60;9.33;;;;;;;;;;6089159;23;20183;-91
2024/01/22 01:36:14;;;;;;;20.30;8.50;;;;;;;;;;6092120;23;20174;-91
2024/01/22 01:51:41;;;;;;;16.47;7.27;;;;;;;;;;6092790;23;20687;-89
2024/01/22 01:54:48;;;;;;;18.97;8.13;;;;;;;;;;6091277;23;20215;-91
2024/01/22 01:57:54;;;;;;;20.87;8.17;;;;;;;;;;6089699;23;20174;-91
2024/01/22 02:01:00;;;;;;;18.57;7.97;;;;;;;;;;6088634;23;20190;-93
2024/01/22 02:04:06;;;;;;;19.50;8.37;;;;;;;;;;6089900;23;20223;-90
2024/01/22 02:07:14;;;;;;;25.77;8.57;;;;;;;;;;6091081;23;20228;-92
2024/01/22 02:10:16;;;;;;;19.13;8.37;;;;;;;;;;6070944;23;20214;-91
2024/01/22 02:16:44;;;;;;;21.97;8.53;;;;;;;;;;6061804;23;20196;-92
2024/01/22 02:32:30;;;;;;;19.73;8.53;;;;;;;;;;6050438;23;20215;-92
2024/01/22 02:35:37;;;;;;;19.03;7.77;;;;;;;;;;6089008;23;20179;-91
2024/01/22 02:38:43;;;;;;;21.03;8.30;;;;;;;;;;6088581;23;20196;-93
2024/01/22 02:41:49;;;;;;;14.20;7.80;;;;;;;;;;6087700;23;20201;-94
2024/01/22 02:44:55;;;;;;;18.87;7.97;;;;;;;;;;6088266;23;20196;-91
2024/01/22 02:48:05;;;;;;;15.63;7.60;;;;;;;;;;6088588;23;20154;-92
2024/01/22 02:51:11;;;;;;;17.20;7.77;;;;;;;;;;6089299;23;20154;-92
2024/01/22 02:54:20;;;;;;;20.03;8.07;;;;;;;;;;6090170;23;20245;-93
2024/01/22 02:57:26;;;;;;;19.03;8.10;;;;;;;;;;6089764;23;20191;-92
2024/01/22 03:00:35;;;;;;;18.13;7.60;;;;;;;;;;6088321;23;20228;-92
2024/01/22 03:03:42;;;;;;;15.90;7.70;;;;;;;;;;6088210;23;20199;-92
2024/01/22 03:06:49;;;;;;;13.73;7.40;;;;;;;;;;6088611;23;20158;-91
2024/01/22 03:09:54;;;;;;;16.50;6.97;;;;;;;;;;6088461;23;20238;-92
2024/01/22 03:13:00;;;;;;;19.27;6.87;;;;;;;;;;6088050;23;20195;-90
2024/01/22 03:19:28;;;;;;;17.37;7.33;;;;;;;;;;6086828;23;20615;-92
2024/01/22 03:22:35;;;;;;;16.90;6.80;;;;;;;;;;6086929;23;20175;-91
2024/01/22 03:25:40;;;;;;;17.53;7.80;;;;;;;;;;6087652;23;20170;-90
2024/01/22 03:28:46;;;;;;;18.53;7.43;;;;;;;;;;6088052;23;20167;-91
2024/01/22 03:31:53;;;;;;;17.13;7.40;;;;;;;;;;6089698;23;20166;-91
2024/01/22 03:35:01;;;;;;;17.57;7.30;;;;;;;;;;6088687;23;20174;-91
2024/01/22 03:38:06;;;;;;;16.50;6.97;;;;;;;;;;6087923;23;20171;-91
2024/01/22 03:41:11;;;;;;;17.63;7.10;;;;;;;;;;6087729;23;20678;-92
2024/01/22 03:44:17;;;;;;;13.47;6.37;;;;;;;;;;6089384;23;20174;-91
2024/01/22 03:47:23;;;;;;;19.13;7.57;;;;;;;;;;6088293;23;20199;-91
2024/01/22 03:50:30;;;;;;;17.93;7.07;;;;;;;;;;6087280;23;20167;-92
2024/01/22 03:53:35;;;;;;;16.07;7.17;;;;;;;;;;6071464;23;20169;-92
2024/01/22 03:56:41;;;;;;;14.87;7.53;;;;;;;;;;6088471;23;20170;-90
2024/01/22 03:59:51;;;;;;;14.70;7.07;;;;;;;;;;6087892;23;20224;-91
2024/01/22 04:02:57;;;;;;;16.70;7.43;;;;;;;;;;6087077;23;20174;-90
2024/01/22 04:06:06;;;;;;;17.87;7.60;;;;;;;;;;6086985;23;20217;-92
2024/01/22 04:09:11;;;;;;;17.90;7.17;;;;;;;;;;6088604;23;20170;-91
2024/01/22 04:12:16;;;;;;;15.77;7.13;;;;;;;;;;6086553;23;20174;-92
2024/01/22 04:15:21;;;;;;;15.97;7.17;;;;;;;;;;6086291;23;20174;-91
2024/01/22 04:18:27;;;;;;;18.43;7.83;;;;;;;;;;6084168;23;20215;-91
2024/01/22 04:21:34;;;;;;;15.77;7.70;;;;;;;;;;6086666;23;20219;-92
2024/01/22 04:24:40;;;;;;;20.00;7.90;;;;;;;;;;6086787;23;20175;-89
2024/01/22 04:27:45;;;;;;;18.27;7.10;;;;;;;;;;6085612;23;20170;-92
2024/01/22 04:30:51;;;;;;;17.60;6.80;;;;;;;;;;6084994;23;20178;-91
2024/01/22 04:33:57;;;;;;;14.17;7.10;;;;;;;;;;6084668;23;20199;-91
2024/01/22 04:37:05;;;;;;;13.33;6.40;;;;;;;;;;6085657;23;20150;-91
2024/01/22 04:40:12;;;;;;;17.33;6.97;;;;;;;;;;6085411;23;20242;-91
2024/01/22 04:43:18;;;;;;;15.50;6.80;;;;;;;;;;6086472;23;20166;-93
2024/01/22 04:46:23;;;;;;;12.83;6.20;;;;;;;;;;6086010;23;20354;-92
2024/01/22 04:49:29;;;;;;;17.00;7.50;;;;;;;;;;6085733;23;20171;-91
2024/01/22 04:52:36;;;;;;;16.10;7.53;;;;;;;;;;6086065;23;20153;-90
2024/01/22 04:55:42;;;;;;;17.47;6.70;;;;;;;;;;6086686;23;20181;-90
2024/01/22 04:58:48;;;;;;;14.53;6.03;;;;;;;;;;6087596;23;20242;-93
2024/01/22 05:01:53;;;;;;;15.77;6.63;;;;;;;;;;6087292;23;20173;-91
2024/01/22 05:04:59;;;;;;;14.67;5.87;;;;;;;;;;6086185;23;20175;-91
2024/01/22 05:08:07;;;;;;;19.33;6.57;;;;;;;;;;6087668;23;20203;-91
2024/01/22 05:11:12;;;;;;;17.03;6.47;;;;;;;;;;6088740;23;20174;-91
2024/01/22 05:14:18;;;;;;;15.00;7.07;;;;;;;;;;6089236;23;20175;-89
2024/01/22 05:17:24;;;;;;;14.30;6.70;;;;;;;;;;6088855;23;20165;-92
2024/01/22 05:20:30;;;;;;;14.63;6.60;;;;;;;;;;6089235;23;20182;-92
2024/01/22 05:23:37;;;;;;;13.50;6.47;;;;;;;;;;6088157;23;20162;-93
2024/01/22 05:26:45;;;;;;;18.27;8.40;;;;;;;;;;6088432;23;20188;-91
2024/01/22 05:29:50;;;;;;;16.67;6.27;;;;;;;;;;6088494;23;20170;-89
2024/01/22 05:32:56;;;;;;;14.60;6.63;;;;;;;;;;6091506;23;20231;-92
2024/01/22 05:36:02;;;;;;;16.33;6.70;;;;;;;;;;6093107;23;20188;-90
2024/01/22 05:39:09;;;;;;;17.57;6.50;;;;;;;;;;6090390;23;20170;-92
2024/01/22 05:42:15;;;;;;;14.70;6.57;;;;;;;;;;6090537;23;20206;-92
2024/01/22 05:45:20;;;;;;;17.23;7.47;;;;;;;;;;6090530;23;20231;-91
2024/01/22 05:48:26;;;;;;;17.23;7.60;;;;;;;;;;6091449;23;20266;-90
2024/01/22 05:51:32;;;;;;;18.17;7.73;;;;;;;;;;6089204;23;20195;-91
2024/01/22 05:54:44;;;;;;;15.33;6.87;;;;;;;;;;6088886;23;20178;-91
2024/01/22 05:57:49;;;;;;;21.87;7.97;;;;;;;;;;6091532;23;20167;-93
2024/01/22 06:00:55;;;;;;;15.93;6.57;;;;;;;;;;6089217;23;20181;-92
2024/01/22 06:04:04;;;;;;;15.50;7.30;;;;;;;;;;6090490;23;20251;-89
2024/01/22 06:07:09;;;;;;;17.03;7.33;;;;;;;;;;6089444;23;20195;-91
2024/01/22 06:10:18;;;;;;;19.83;7.47;;;;;;;;;;6088802;23;20171;-92
2024/01/22 06:13:25;;;;;;;15.03;7.50;;;;;;;;;;6088470;23;20174;-92
2024/01/22 06:16:34;;;;;;;17.20;6.87;;;;;;;;;;6092800;23;20215;-89
2024/01/22 06:19:42;;;;;;;31.83;12.70;;;;;;;;;;6090550;23;20166;-89
2024/01/22 06:22:48;;;;;;;17.97;7.10;;;;;;;;;;6089865;23;20215;-90
2024/01/22 06:25:56;;;;;;;19.17;7.50;;;;;;;;;;6090027;23;20224;-89
2024/01/22 09:30:57;;;;;;;13.00;6.10;;;;;;;;;;6081603;23;20215;-92
2024/01/22 09:34:06;;;;;;;15.47;6.43;;;;;;;;;;6092836;23;20170;-93
2024/01/22 09:37:12;;;;;;;12.03;5.10;;;;;;;;;;6092101;23;20159;-92
2024/01/22 09:40:30;;;;;;;15.37;6.33;;;;;;;;;;6093222;23;20155;-93
2024/01/22 09:43:51;;;;;;;14.77;6.20;;;;;;;;;;6091619;23;20176;-91
2024/01/22 09:50:17;;;;;;;14.27;6.60;;;;;;;;;;6063663;23;20201;-92
2024/01/22 09:53:24;;;;;;;13.13;5.90;;;;;;;;;;6062901;23;20167;-91
2024/01/22 09:56:32;;;;;;;12.83;5.80;;;;;;;;;;6078702;23;20167;-92
2024/01/22 09:59:38;;;;;;;14.60;5.80;;;;;;;;;;6079025;23;20220;-91
2024/01/22 10:02:44;;;;;;;15.87;6.77;;;;;;;;;;6079185;23;20265;-91
2024/01/22 10:05:53;;;;;;;13.23;5.97;;;;;;;;;;6063705;23;20170;-93
2024/01/22 10:08:59;;;;;;;11.37;5.47;;;;;;;;;;6080767;23;20171;-91
2024/01/22 10:12:05;;;;;;;16.40;5.90;;;;;;;;;;6062546;23;20174;-93
2024/01/22 10:15:14;;;;;;;15.10;6.57;;;;;;;;;;6079083;23;20179;-94
2024/01/22 10:18:24;;;;;;;14.73;5.93;;;;;;;;;;6079709;23;20206;-92
2024/01/22 10:21:32;;;;;;;17.33;5.77;;;;;;;;;;6077972;23;20263;-91
2024/01/22 10:24:50;;;;;;;13.57;6.13;;;;;;;;;;6079849;23;20204;-93
2024/01/22 10:28:09;;;;;;;10.93;5.67;;;;;;;;;;6077226;23;20171;-92
2024/01/22 10:31:15;;;;;;;25.17;6.60;;;;;;;;;;6062801;23;20204;-93
2024/01/22 10:37:43;;;;;;;16.10;6.20;;;;;;;;;;6078253;23;20204;-92
2024/01/22 10:40:49;;;;;;;23.30;6.90;;;;;;;;;;6079654;23;20154;-92
2024/01/22 10:43:55;;;;;;;22.60;6.80;;;;;;;;;;6080739;23;20180;-91
2024/01/22 10:50:29;;;;;;;15.97;6.17;;;;;;;;;;6064894;23;20187;-92
2024/01/22 10:53:37;;;;;;;12.40;5.60;;;;;;;;;;6079737;23;20174;-94
2024/01/22 12:34:00;;;;;;;28.60;8.90;;;;;;;;;;6068315;23;20217;-91
2024/01/22 12:37:18;;;;;;;46.43;8.83;;;;;;;;;;6089769;23;20489;-92
2024/01/22 12:40:24;;;;;;;25.80;9.33;;;;;;;;;;6091362;23;20158;-93
2024/01/22 12:43:33;;;;;;;23.27;9.43;;;;;;;;;;6091553;23;20181;-91
2024/01/22 12:46:39;;;;;;;34.53;12.47;;;;;;;;;;6090639;23;20175;-93
2024/01/22 12:49:51;;;;;;;59.20;14.83;;;;;;;;;;6088920;23;20162;-94
2024/01/22 12:52:58;;;;;;;39.30;12.87;;;;;;;;;;6088412;23;20170;-92
2024/01/22 12:56:05;;;;;;;30.43;10.93;;;;;;;;;;6089303;23;20178;-89
2024/01/22 12:59:13;;;;;;;48.10;13.47;;;;;;;;;;6089523;23;20166;-90
2024/01/22 13:05:40;;;;;;;33.77;10.63;;;;;;;;;;6090212;23;20170;-92
2024/01/22 13:08:47;;;;;;;50.63;13.13;;;;;;;;;;6073733;23;20256;-92
2024/01/22 13:11:54;;;;;;;30.53;9.33;;;;;;;;;;6060960;23;20197;-93
2024/01/22 13:15:00;;;;;;;25.90;9.23;;;;;;;;;;6060972;23;20176;-92
2024/01/22 13:17:51;;;;;;;35.17;9.43;;;;;;;;;;6064517;23;20230;-93
2024/01/22 13:20:58;;;;;;;32.00;9.83;;;;;;;;;;6089765;23;20299;-93
2024/01/22 13:24:07;;;;;;;27.07;8.43;;;;;;;;;;6090501;23;20174;-90
2024/01/22 13:27:13;;;;;;;20.07;9.00;;;;;;;;;;6090466;23;20529;-91
2024/01/22 13:30:19;;;;;;;21.23;7.70;;;;;;;;;;6089054;23;20243;-93
2024/01/22 13:33:24;;;;;;;49.80;18.50;;;;;;;;;;6090691;23;20180;-91
2024/01/22 13:36:45;;;;;;;51.50;18.67;;;;;;;;;;6090894;23;20214;-90
2024/01/22 13:40:01;;;;;;;34.37;12.87;;;;;;;;;;6091384;23;20179;-92
2024/01/22 13:43:06;;;;;;;25.07;10.10;;;;;;;;;;6091653;23;20198;-91
2024/01/22 13:46:12;;;;;;;24.93;9.07;;;;;;;;;;6091056;23;20170;-92
2024/01/22 13:49:21;;;;;;;39.47;11.63;;;;;;;;;;6092518;23;20199;-91
2024/01/22 13:52:26;;;;;;;72.90;22.57;;;;;;;;;;6092569;23;20231;-92
2024/01/22 13:55:34;;;;;;;46.10;14.27;;;;;;;;;;6089508;23;20158;-92
2024/01/22 13:58:41;;;;;;;33.50;12.73;;;;;;;;;;6091280;23;20184;-93
2024/01/22 14:01:55;;;;;;;27.63;11.07;;;;;;;;;;6090014;23;20183;-90
2024/01/22 14:05:01;;;;;;;25.27;8.90;;;;;;;;;;6090252;23;20157;-93
2024/01/22 14:08:07;;;;;;;26.43;11.13;;;;;;;;;;6089395;23;20222;-91
2024/01/22 14:11:18;;;;;;;20.43;8.90;;;;;;;;;;6092010;23;20207;-90
2024/01/22 14:14:24;;;;;;;21.03;8.50;;;;;;;;;;6091522;23;20154;-90
2024/01/22 14:17:29;;;;;;;20.57;7.87;;;;;;;;;;6087000;23;20175;-91
2024/01/22 14:20:34;;;;;;;22.43;8.30;;;;;;;;;;6087195;23;20171;-92
2024/01/22 14:23:39;;;;;;;17.83;7.90;;;;;;;;;;6088196;23;20335;-91
2024/01/22 14:26:49;;;;;;;26.50;7.50;;;;;;;;;;6085443;23;20188;-91
2024/01/22 14:29:54;;;;;;;16.70;6.97;;;;;;;;;;6088374;23;20158;-93
2024/01/22 14:33:01;;;;;;;21.40;8.33;;;;;;;;;;6090269;23;20603;-92
2024/01/22 14:36:06;;;;;;;16.87;7.03;;;;;;;;;;6086889;23;20170;-93
2024/01/22 14:39:13;;;;;;;20.23;7.57;;;;;;;;;;6088502;23;20178;-92
2024/01/22 14:42:21;;;;;;;17.90;7.27;;;;;;;;;;6087381;23;20202;-92
2024/01/22 14:45:26;;;;;;;24.13;7.47;;;;;;;;;;6087470;23;20167;-92
2024/01/22 14:48:32;;;;;;;24.73;8.73;;;;;;;;;;6089072;23;20195;-93
2024/01/22 14:51:38;;;;;;;35.13;14.37;;;;;;;;;;6087334;23;20179;-92
2024/01/22 14:54:45;;;;;;;19.13;7.90;;;;;;;;;;6087553;23;20550;-91
2024/01/22 14:57:53;;;;;;;20.03;7.70;;;;;;;;;;6087918;23;20166;-92
2024/01/22 15:00:58;;;;;;;21.03;8.80;;;;;;;;;;6089900;23;20216;-93
2024/01/22 15:04:08;;;;;;;21.37;8.87;;;;;;;;;;6089034;23;20284;-91
2024/01/22 15:07:15;;;;;;;27.53;9.37;;;;;;;;;;6087955;23;20502;-91
2024/01/22 15:10:26;;;;;;;27.57;11.67;;;;;;;;;;6088224;23;20183;-91
2024/01/22 15:13:50;;;;;;;35.63;12.27;;;;;;;;;;6089882;23;20219;-90
2024/01/22 15:17:01;;;;;;;23.87;10.27;;;;;;;;;;6090112;23;20167;-91
2024/01/22 15:20:08;;;;;;;31.40;10.27;;;;;;;;;;6090366;23;20170;-92
2024/01/22 15:23:19;;;;;;;24.63;11.40;;;;;;;;;;6090656;23;20198;-94
2024/01/22 15:26:25;;;;;;;28.23;12.90;;;;;;;;;;6091655;23;20194;-91
2024/01/22 15:29:32;;;;;;;27.37;11.30;;;;;;;;;;6090477;23;20167;-92
2024/01/22 15:33:01;;;;;;;23.60;10.17;;;;;;;;;;6091542;23;20211;-90
2024/01/22 15:36:12;;;;;;;25.60;10.33;;;;;;;;;;6090090;23;20222;-91
2024/01/22 15:39:20;;;;;;;24.83;9.70;;;;;;;;;;6090006;23;20166;-92
2024/01/22 15:42:27;;;;;;;29.57;10.20;;;;;;;;;;6087932;23;20189;-93
2024/01/22 15:54:25;;;;;;;26.03;11.43;;;;;;;;;;6061666;23;20219;-90
2024/01/22 15:57:31;;;;;;;25.77;9.10;;;;;;;;;;6092394;23;20663;-92
2024/01/22 16:15:38;;;;;;;29.30;11.97;;;;;;;;;;6079477;23;20783;-92
2024/01/22 23:02:25;;;;;;;1.43;1.30;;;;;;;;;;6084882;23;20222;-92
2024/01/22 23:05:31;;;;;;;1.70;1.60;;;;;;;;;;6090135;23;20158;-93
2024/01/22 23:17:30;;;;;;;1.23;1.13;;;;;;;;;;6090412;23;20179;-92
2024/01/22 23:20:36;;;;;;;2.07;1.37;;;;;;;;;;6089491;23;20676;-92
2024/01/22 23:27:08;;;;;;;1.83;1.20;;;;;;;;;;6061749;23;20171;-93
2024/01/22 23:30:14;;;;;;;3.07;2.43;;;;;;;;;;6060738;23;20155;-93
2024/01/22 23:33:21;;;;;;;3.43;2.03;;;;;;;;;;6060512;23;20247;-90
2024/01/22 23:39:47;;;;;;;3.73;2.03;;;;;;;;;;6061974;23;20172;-91
2024/01/22 23:42:48;;;;;;;4.17;2.70;;;;;;;;;;6070155;23;20230;-91
2024/01/22 23:45:54;;;;;;;5.20;2.10;;;;;;;;;;6088286;23;20154;-91
2024/01/22 23:51:48;;;;;;;0.97;0.97;;;;;;;;;;6059048;23;21259;-92
2024/01/22 23:55:00;;;;;;;1.33;1.23;;;;;;;;;;6090428;23;20171;-91
